Aérodrome :
LOGIN :

S'inscrire | Disclaimer

   EN    FR    IT 

 










Légende :    VFR   VFR Marginal   IFR   IFR Intensif   IFR Très Intensif
Visi : 
Plafond : 
>= 8 km
>= 3000ft
5 à 8 km
1000 à 3000 ft
1500m à 5 km
500 à 1000 ft
800 à 1500m
200 à 500 ft
< 800m
< 200 ft
Symboles :   Orages  Brouillard  Fortes neiges  Fortes précipitations  Vent > 20 kt
SIGMETs :   Divers  Orages  Givrage  Turbulence  Onde Orograph.  Cendres Volcan.







- Altitude de l'aérodrome : 276 ft
- Code IATA : RBA


GMME - Rabat

DERNIER METAR :
  • 181500Z 32009KT 290V040 9999 SCT016TCU BKN070 15/08 Q1020 NOSIG

METARs EXPIRÉS :
  • 181430Z 33007KT 270V010 9999 SCT016TCU SCT080 16/08 Q1020 NOSIG
  • 181400Z 30007KT 260V350 9999 SCT020TCU SCT100 15/09 Q1020 NOSIG
  • 181330Z 31007KT 280V360 9999 SCT020TCU SCT100 16/08 Q1020 NOSIG
  • 181300Z 30006KT 260V330 9999 SCT020TCU SCT100 16/07 Q1020 NOSIG
  • 181230Z 30005KT 260V330 8000 SCT020 15/09 Q1020 NOSIG

TAF TAF GMME
Valide du 18 à 12h jusqu'au 19 à 18h UTC


181100Z 1812/1918 32010KT 6000 SCT020 SCT100
TEMPO 1903/1918 18015KT RA BKN013 BKN015
Pas de NOTAMs connus pour ce terrain.
4 SIGMETs publiés pour la FIR Casablanca (GMMM) :
 
Turbulence forte
GMMM SIGMET T2 VALID 181500/181700 GMMC
GMMM CASABLANCA FIR SEV TURB FCST W OF LINE N3320 W00941 - N3106 W01 216 - N3415 W01124 FL370/400 MOV E NC=
Turbulence forte
GMMM SIGMET T2 VALID 181500/181700 GMMC GMMM CASABLANCA FIR SEV TURB FCST W OF LINE N3320 W00941 - N3106 W01 216 - N3415 W01124 FL370/400 MOV E NC=
Turbulence forte
GMMM SIGMET T1 VALID 181125/181500 GMMC
GMMM CASABLANCA FIR SEV TURB FCST W OF LINE N3320 W00941 - N3106 W01 216 - N3415 W01124 FL370/400 MOV E NC=
Turbulence forte
GMMM SIGMET T1 VALID 181125/181500 GMMC GMMM CASABLANCA FIR SEV TURB FCST W OF LINE N3320 W00941 - N3106 W01 216 - N3415 W01124 FL370/400 MOV E NC=



MET'MAP, la Météo Aéronautique d'un coup d'oeil ! - Copyright ORBIFLY Décembre 2007 - Disclaimer

ORBIFLY MET'MAP TEAM :

Programmation & Développement : Alexandra Zaïnal
Conception & Développement : Baudouin d'Aumeries
Co-Programmation & Développement : Marc-Olivier Méhu
Soutien technique & logistique : Manuel Goepfert

Contact : metmap@orbifly.com




SOURCES & CREDITS :

   NOAA